createdAt,value
2018-09-27T00:00:40.095Z,8.05
2018-09-27T00:03:15.528Z,8.85
2018-09-27T00:05:50.989Z,7.72
2018-09-27T00:08:26.354Z,7.10
2018-09-27T00:11:01.888Z,6.75
2018-09-27T00:13:37.085Z,7.55
2018-09-27T00:16:12.537Z,6.95
2018-09-27T00:18:47.996Z,7.60
2018-09-27T00:21:23.527Z,6.40
2018-09-27T00:23:58.965Z,8.48
2018-09-27T00:26:34.296Z,8.38
2018-09-27T00:29:09.553Z,7.75
2018-09-27T00:31:45.206Z,7.53
2018-09-27T00:34:20.882Z,7.95
2018-09-27T00:36:56.515Z,6.97
2018-09-27T00:39:32.048Z,7.97
2018-09-27T00:42:07.388Z,7.25
2018-09-27T00:44:42.807Z,6.72
2018-09-27T00:47:18.044Z,8.18
2018-09-27T00:49:53.468Z,8.05
2018-09-27T00:52:28.854Z,7.42
2018-09-27T00:55:04.094Z,7.97
2018-09-27T00:57:39.424Z,8.80
2018-09-27T01:00:14.734Z,8.45
2018-09-27T01:02:50.234Z,8.40
2018-09-27T01:05:25.795Z,9.30
2018-09-27T01:08:01.307Z,10.08
2018-09-27T01:10:36.890Z,8.85
2018-09-27T01:13:12.207Z,9.18
2018-09-27T01:15:47.653Z,10.55
2018-09-27T01:18:22.995Z,9.70
2018-09-27T01:20:58.367Z,9.85
2018-09-27T01:23:33.667Z,9.00
2018-09-27T01:26:08.927Z,11.28
2018-09-27T01:28:44.084Z,10.80
2018-09-27T01:31:19.517Z,8.98
2018-09-27T01:33:54.957Z,9.70
2018-09-27T01:36:30.394Z,11.35
2018-09-27T01:39:07.248Z,9.65
2018-09-27T01:41:42.604Z,10.70
2018-09-27T01:44:18.045Z,10.53
2018-09-27T01:46:53.588Z,10.35
2018-09-27T01:49:28.904Z,10.68
2018-09-27T01:52:04.259Z,11.63
2018-09-27T01:54:39.505Z,10.05
2018-09-27T01:57:14.967Z,11.65
2018-09-27T01:59:50.491Z,9.88
2018-09-27T02:02:25.742Z,9.85
2018-09-27T02:05:00.977Z,11.70
2018-09-27T02:07:36.085Z,9.05
2018-09-27T02:10:11.457Z,10.85
2018-09-27T02:12:46.928Z,11.53
2018-09-27T02:15:22.319Z,9.15
2018-09-27T02:17:57.884Z,9.50
2018-09-27T02:20:33.417Z,9.40
2018-09-27T02:23:08.978Z,8.98
2018-09-27T02:25:44.305Z,9.43
2018-09-27T02:28:19.675Z,9.28
2018-09-27T02:30:55.164Z,8.68
2018-09-27T02:33:30.346Z,9.60
2018-09-27T02:36:05.606Z,9.18
2018-09-27T02:38:40.915Z,9.33
2018-09-27T02:41:16.599Z,10.45
2018-09-27T02:43:52.027Z,8.75
2018-09-27T02:46:27.568Z,10.05
2018-09-27T02:49:03.218Z,8.95
2018-09-27T02:51:38.535Z,9.70
2018-09-27T02:54:14.015Z,9.53
2018-09-27T02:56:49.454Z,8.70
2018-09-27T02:59:25.017Z,9.55
2018-09-27T03:02:00.437Z,10.38
2018-09-27T03:04:35.855Z,9.38
2018-09-27T03:07:11.213Z,10.40
2018-09-27T03:09:46.548Z,7.30
2018-09-27T03:12:21.804Z,8.55
2018-09-27T03:14:57.035Z,7.67
2018-09-27T03:17:32.358Z,8.50
2018-09-27T03:20:08.135Z,7.95
2018-09-27T03:22:43.588Z,8.35
2018-09-27T03:25:19.124Z,7.33
2018-09-27T03:27:57.823Z,7.70
2018-09-27T03:30:33.285Z,7.37
2018-09-27T03:33:08.915Z,6.87
2018-09-27T03:35:44.356Z,8.20
2018-09-27T03:38:19.827Z,7.30
2018-09-27T03:40:55.059Z,7.03
2018-09-27T03:43:30.405Z,6.87
2018-09-27T03:46:05.728Z,7.70
2018-09-27T03:48:41.112Z,7.58
2018-09-27T03:51:16.298Z,7.58
2018-09-27T03:53:51.664Z,7.47
2018-09-27T03:56:30.038Z,7.90
2018-09-27T03:59:05.602Z,9.15
2018-09-27T04:01:41.278Z,9.20
2018-09-27T04:04:16.728Z,10.38
2018-09-27T04:06:52.248Z,8.88
2018-09-27T04:09:27.804Z,10.03
2018-09-27T04:12:03.257Z,10.05
2018-09-27T04:14:38.727Z,8.55
2018-09-27T04:17:14.034Z,7.90
2018-09-27T04:19:49.588Z,11.08
2018-09-27T04:22:24.876Z,11.68
2018-09-27T04:25:00.236Z,8.65
2018-09-27T04:27:35.538Z,8.88
2018-09-27T04:30:10.794Z,7.90
2018-09-27T04:32:46.107Z,7.62
2018-09-27T04:35:21.512Z,9.08
2018-09-27T04:37:57.051Z,8.40
2018-09-27T04:40:32.464Z,7.85
2018-09-27T04:43:07.724Z,7.75
2018-09-27T04:45:43.256Z,7.37
2018-09-27T04:48:18.727Z,6.70
2018-09-27T04:50:54.406Z,7.75
2018-09-27T04:53:30.147Z,6.92
2018-09-27T04:56:05.608Z,8.48
2018-09-27T04:58:41.044Z,8.85
2018-09-27T05:01:16.577Z,6.80
2018-09-27T05:03:52.009Z,6.08
2018-09-27T05:06:27.381Z,6.67
2018-09-27T05:09:02.767Z,6.67
2018-09-27T05:11:38.039Z,8.00
2018-09-27T05:14:13.527Z,6.40
2018-09-27T05:16:48.995Z,6.83
2018-09-27T05:19:24.331Z,6.92
2018-09-27T05:21:59.799Z,6.70
2018-09-27T05:24:35.487Z,7.30
2018-09-27T05:27:11.008Z,6.95
2018-09-27T05:29:46.426Z,7.62
2018-09-27T05:32:21.779Z,9.40
2018-09-27T05:34:57.099Z,9.15
2018-09-27T05:37:32.369Z,7.67
2018-09-27T05:40:07.827Z,8.25
2018-09-27T05:42:43.263Z,7.97
2018-09-27T05:45:18.496Z,8.85
2018-09-27T05:47:53.858Z,8.13
2018-09-27T05:50:29.111Z,7.65
2018-09-27T05:53:04.704Z,7.83
2018-09-27T05:55:40.099Z,7.25
2018-09-27T05:58:15.527Z,6.72
2018-09-27T06:00:51.177Z,7.50
2018-09-27T06:03:26.633Z,6.00
2018-09-27T06:06:02.134Z,5.90
2018-09-27T06:08:37.680Z,6.60
2018-09-27T06:11:13.487Z,7.33
2018-09-27T06:13:49.071Z,7.00
2018-09-27T06:16:24.757Z,5.15
2018-09-27T06:19:00.194Z,5.60
2018-09-27T06:21:35.653Z,5.37
2018-09-27T06:24:11.069Z,5.75
2018-09-27T06:26:46.618Z,4.15
2018-09-27T06:29:22.316Z,5.15
2018-09-27T06:31:57.711Z,5.70
2018-09-27T06:34:33.148Z,5.85
2018-09-27T06:37:08.418Z,6.28
2018-09-27T06:39:43.744Z,7.42
2018-09-27T06:42:19.088Z,7.75
2018-09-27T06:44:54.539Z,6.45
2018-09-27T06:47:29.833Z,7.37
2018-09-27T06:50:05.151Z,7.55
2018-09-27T06:52:40.813Z,7.08
2018-09-27T06:55:16.421Z,7.90
2018-09-27T06:57:51.646Z,9.35
2018-09-27T07:00:27.062Z,12.98
2018-09-27T07:03:02.533Z,13.55
2018-09-27T07:05:37.849Z,14.75
2018-09-27T07:08:13.297Z,14.40
2018-09-27T07:10:48.773Z,15.23
2018-09-27T07:13:24.435Z,13.70
2018-09-27T07:15:59.964Z,15.57
2018-09-27T07:18:35.553Z,14.10
2018-09-27T07:21:10.955Z,15.05
2018-09-27T07:23:46.274Z,14.68
2018-09-27T07:26:21.792Z,16.00
2018-09-27T07:28:57.118Z,15.83
2018-09-27T07:31:32.427Z,15.65
2018-09-27T07:34:08.056Z,15.72
2018-09-27T07:36:43.483Z,13.63
2018-09-27T07:39:18.729Z,14.27
2018-09-27T07:41:54.266Z,13.13
2018-09-27T07:44:29.619Z,12.83
2018-09-27T07:47:05.180Z,15.08
2018-09-27T07:49:40.674Z,14.47
2018-09-27T07:52:15.977Z,13.62
2018-09-27T07:54:51.387Z,11.60
2018-09-27T07:57:26.866Z,11.33
2018-09-27T08:00:02.233Z,10.03
2018-09-27T08:02:37.728Z,10.10
2018-09-27T08:05:13.153Z,8.87
2018-09-27T08:07:48.727Z,10.33
2018-09-27T08:10:24.137Z,10.33
2018-09-27T08:12:59.747Z,10.40
2018-09-27T08:15:35.046Z,9.77
2018-09-27T08:18:10.556Z,10.27
2018-09-27T08:20:46.112Z,10.43
2018-09-27T08:23:21.507Z,10.10
2018-09-27T08:25:57.115Z,12.63
2018-09-27T08:28:32.774Z,11.73
2018-09-27T08:31:08.218Z,12.60
2018-09-27T08:33:43.806Z,12.20
2018-09-27T08:36:19.096Z,11.03
2018-09-27T08:38:54.349Z,10.00
2018-09-27T08:41:29.674Z,9.80
2018-09-27T08:44:05.219Z,9.83
2018-09-27T08:46:41.650Z,9.30
2018-09-27T08:49:17.035Z,8.80
2018-09-27T08:51:52.574Z,9.37
2018-09-27T08:54:28.226Z,10.90
2018-09-27T08:57:03.705Z,9.10
2018-09-27T08:59:39.080Z,8.60
2018-09-27T09:02:14.566Z,8.13
2018-09-27T09:04:49.998Z,6.63
2018-09-27T09:07:25.417Z,6.30
2018-09-27T09:10:00.978Z,6.90
2018-09-27T09:12:36.347Z,7.00
2018-09-27T09:15:11.785Z,6.80
2018-09-27T09:17:47.207Z,5.60
2018-09-27T09:20:22.324Z,6.20
2018-09-27T09:22:58.099Z,7.43
2018-09-27T09:25:33.461Z,6.50
2018-09-27T09:28:08.804Z,6.90
2018-09-27T09:30:44.154Z,5.43
2018-09-27T09:33:19.674Z,6.80
2018-09-27T09:35:55.262Z,5.73
2018-09-27T09:38:30.777Z,6.60
2018-09-27T09:41:06.094Z,7.00
2018-09-27T09:43:41.424Z,8.40
2018-09-27T09:46:16.810Z,6.50
2018-09-27T09:48:52.333Z,7.37
2018-09-27T09:51:27.784Z,7.57
2018-09-27T09:54:03.343Z,7.73
2018-09-27T09:56:38.754Z,6.93
2018-09-27T09:59:14.337Z,7.87
2018-09-27T10:01:49.735Z,9.13
2018-09-27T10:04:24.998Z,9.30
2018-09-27T10:07:00.513Z,8.23
2018-09-27T10:09:35.797Z,8.70
2018-09-27T10:12:11.193Z,9.20
2018-09-27T10:14:46.594Z,10.87
2018-09-27T10:17:21.993Z,9.90
2018-09-27T10:19:57.360Z,10.00
2018-09-27T10:22:32.778Z,11.33
2018-09-27T10:25:08.153Z,10.63
2018-09-27T10:27:43.280Z,11.40
2018-09-27T10:30:18.734Z,11.20
2018-09-27T10:32:54.163Z,10.93
2018-09-27T10:35:29.415Z,11.70
2018-09-27T10:38:04.957Z,10.30
2018-09-27T10:40:40.557Z,10.40
2018-09-27T10:43:15.887Z,10.43
2018-09-27T10:45:51.438Z,10.30
2018-09-27T10:48:26.735Z,10.63
2018-09-27T10:51:02.118Z,9.50
2018-09-27T10:53:37.637Z,10.93
2018-09-27T10:56:12.953Z,9.63
2018-09-27T10:58:48.296Z,11.23
2018-09-27T11:01:23.827Z,12.33
2018-09-27T11:03:59.413Z,11.20
2018-09-27T11:06:34.847Z,10.83
2018-09-27T11:09:10.457Z,11.00
2018-09-27T11:11:45.816Z,10.27
2018-09-27T11:14:21.277Z,11.20
2018-09-27T11:16:56.800Z,9.97
2018-09-27T11:19:32.254Z,11.80
2018-09-27T11:22:07.810Z,11.43
2018-09-27T11:24:43.055Z,11.67
2018-09-27T11:27:18.494Z,10.20
2018-09-27T11:29:59.078Z,11.13
2018-09-27T11:32:38.681Z,10.53
2018-09-27T11:35:14.330Z,10.57
2018-09-27T11:37:49.797Z,9.70
2018-09-27T11:40:25.126Z,9.37
2018-09-27T11:43:00.327Z,10.43
2018-09-27T11:45:35.617Z,9.60
2018-09-27T11:48:10.937Z,10.43
2018-09-27T11:50:46.305Z,10.37
2018-09-27T11:53:21.637Z,10.77
2018-09-27T11:55:57.094Z,11.10
2018-09-27T11:58:32.738Z,10.63
2018-09-27T12:01:08.360Z,8.87
2018-09-27T12:03:43.888Z,8.80
2018-09-27T12:06:19.518Z,9.13
2018-09-27T12:08:54.995Z,6.90
2018-09-27T12:11:30.287Z,7.97
2018-09-27T12:14:06.038Z,7.97
2018-09-27T12:16:41.465Z,7.50
2018-09-27T12:19:16.975Z,8.10
2018-09-27T12:21:52.495Z,7.33
2018-09-27T12:24:27.757Z,8.27
2018-09-27T12:27:03.437Z,8.53
2018-09-27T12:29:38.880Z,9.20
2018-09-27T12:32:14.308Z,9.53
2018-09-27T12:34:49.828Z,8.97
2018-09-27T12:37:25.496Z,9.27
2018-09-27T12:40:00.936Z,9.70
2018-09-27T12:42:36.536Z,8.70
2018-09-27T12:45:12.298Z,9.60
2018-09-27T12:47:47.697Z,9.07
2018-09-27T12:50:23.158Z,10.17
2018-09-27T12:52:58.542Z,9.77
2018-09-27T12:55:34.306Z,8.83
2018-09-27T12:58:09.678Z,10.60
2018-09-27T13:00:45.118Z,9.13
2018-09-27T13:03:20.787Z,9.80
2018-09-27T13:05:56.227Z,9.40
2018-09-27T13:08:31.686Z,9.97
2018-09-27T13:11:06.950Z,11.93
2018-09-27T13:13:42.336Z,11.10
2018-09-27T13:16:17.639Z,11.53
2018-09-27T13:18:57.938Z,10.87
2018-09-27T13:21:28.465Z,13.20
2018-09-27T13:25:33.344Z,13.13
2018-09-27T13:28:08.904Z,13.03
2018-09-27T13:30:44.376Z,13.83
2018-09-27T13:33:19.929Z,12.33
2018-09-27T13:35:55.496Z,14.47
2018-09-27T13:38:30.683Z,14.47
2018-09-27T13:41:06.213Z,12.03
2018-09-27T13:43:41.498Z,13.07
2018-09-27T13:46:16.821Z,11.60
2018-09-27T13:48:52.092Z,13.13
2018-09-27T13:51:27.636Z,12.43
2018-09-27T13:54:03.064Z,10.73
2018-09-27T13:56:38.562Z,12.00
2018-09-27T13:59:13.824Z,10.50
2018-09-27T14:01:49.007Z,10.37
2018-09-27T14:04:24.407Z,11.53
2018-09-27T14:06:59.854Z,11.20
2018-09-27T14:09:35.195Z,9.70
2018-09-27T14:12:10.534Z,9.90
2018-09-27T14:14:46.181Z,10.53
2018-09-27T14:17:21.798Z,9.40
2018-09-27T14:19:57.177Z,8.80
2018-09-27T14:22:32.669Z,9.80
2018-09-27T14:25:08.103Z,9.93
2018-09-27T14:27:43.533Z,10.30
2018-09-27T14:30:18.945Z,10.03
2018-09-27T14:32:54.315Z,9.33
2018-09-27T14:35:29.733Z,10.10
2018-09-27T14:38:05.193Z,8.50
2018-09-27T14:40:40.755Z,9.17
2018-09-27T14:43:16.103Z,11.07
2018-09-27T14:45:51.332Z,9.97
2018-09-27T14:48:26.807Z,9.30
2018-09-27T14:51:02.412Z,8.50
2018-09-27T14:53:37.809Z,8.30
2018-09-27T14:56:13.396Z,10.33
2018-09-27T14:58:49.065Z,9.90
2018-09-27T15:01:24.382Z,8.63
2018-09-27T15:03:59.744Z,10.03
2018-09-27T15:06:35.203Z,9.10
2018-09-27T15:09:11.847Z,9.30
2018-09-27T15:11:47.141Z,8.47
2018-09-27T15:14:22.763Z,10.00
2018-09-27T15:16:58.264Z,9.83
2018-09-27T15:19:34.034Z,10.70
2018-09-27T15:22:09.806Z,11.87
2018-09-27T15:24:45.234Z,12.63
2018-09-27T15:27:20.773Z,13.63
2018-09-27T15:29:56.026Z,15.10
2018-09-27T15:32:31.578Z,15.03
2018-09-27T15:35:07.096Z,17.40
2018-09-27T15:37:42.679Z,17.30
2018-09-27T15:40:18.135Z,15.27
2018-09-27T15:42:53.561Z,16.93
2018-09-27T15:45:29.098Z,17.70
2018-09-27T15:48:11.277Z,17.10
2018-09-27T15:50:46.576Z,16.30
2018-09-27T15:53:22.140Z,17.30
2018-09-27T15:55:57.615Z,17.30
2018-09-27T15:58:33.099Z,18.20
2018-09-27T16:01:08.415Z,17.50
2018-09-27T16:03:43.838Z,17.03
2018-09-27T16:06:19.187Z,15.07
2018-09-27T16:08:54.306Z,15.20
2018-09-27T16:11:29.781Z,17.00
2018-09-27T16:14:05.017Z,14.30
2018-09-27T16:16:40.728Z,12.73
2018-09-27T16:19:16.437Z,15.13
2018-09-27T16:21:51.976Z,13.67
2018-09-27T16:24:27.436Z,14.90
2018-09-27T16:27:02.981Z,14.07
2018-09-27T16:29:38.666Z,14.50
2018-09-27T16:32:14.338Z,13.47
2018-09-27T16:34:50.304Z,12.13
2018-09-27T16:37:25.958Z,13.30
2018-09-27T16:40:01.556Z,12.70
2018-09-27T16:42:37.145Z,11.27
2018-09-27T16:45:12.826Z,11.73
2018-09-27T16:47:48.468Z,12.30
2018-09-27T16:50:23.866Z,12.77
2018-09-27T16:52:59.203Z,12.10
2018-09-27T16:55:40.902Z,12.00
2018-09-27T16:58:16.386Z,12.30
2018-09-27T17:00:52.625Z,10.80
2018-09-27T17:03:28.163Z,9.80
2018-09-27T17:06:03.633Z,11.50
2018-09-27T17:08:39.156Z,9.73
2018-09-27T17:11:14.542Z,10.37
2018-09-27T17:13:49.734Z,8.90
2018-09-27T17:16:25.212Z,9.60
2018-09-27T17:19:00.719Z,9.10
2018-09-27T17:21:35.973Z,7.77
2018-09-27T17:24:11.629Z,15.80
2018-09-27T17:26:47.117Z,6.93
2018-09-27T17:29:22.832Z,7.10
2018-09-27T17:31:58.328Z,6.43
2018-09-27T17:34:33.803Z,8.17
2018-09-27T17:37:09.438Z,5.70
2018-09-27T17:39:44.875Z,6.47
2018-09-27T17:42:20.337Z,6.10
2018-09-27T17:44:55.625Z,4.87
2018-09-27T17:47:30.787Z,5.30
2018-09-27T17:50:06.343Z,5.27
2018-09-27T17:52:41.979Z,5.07
2018-09-27T17:55:17.436Z,4.90
2018-09-27T17:57:53.091Z,5.07
2018-09-27T18:00:28.559Z,4.63
2018-09-27T18:03:03.785Z,5.40
2018-09-27T18:05:39.319Z,4.20
2018-09-27T18:08:14.769Z,4.83
2018-09-27T18:10:50.095Z,5.73
2018-09-27T18:13:25.347Z,5.20
2018-09-27T18:16:00.804Z,5.20
2018-09-27T18:18:36.419Z,6.23
2018-09-27T18:21:11.986Z,5.27
2018-09-27T18:23:47.427Z,5.40
2018-09-27T18:26:22.855Z,4.20
2018-09-27T18:28:58.207Z,4.13
2018-09-27T18:31:33.697Z,3.60
2018-09-27T18:34:09.185Z,3.47
2018-09-27T18:36:44.555Z,3.87
2018-09-27T18:39:19.885Z,4.47
2018-09-27T18:41:55.185Z,3.67
2018-09-27T18:44:30.565Z,3.63
2018-09-27T18:47:05.985Z,3.97
2018-09-27T18:49:41.277Z,3.73
2018-09-27T18:52:16.466Z,3.47
2018-09-27T18:54:51.725Z,2.47
2018-09-27T18:57:27.055Z,2.53
2018-09-27T19:00:02.418Z,2.10
2018-09-27T19:02:37.537Z,2.10
2018-09-27T19:05:12.904Z,2.10
2018-09-27T19:07:48.447Z,2.40
2018-09-27T19:10:23.818Z,2.10
2018-09-27T19:12:59.374Z,2.00
2018-09-27T19:15:34.888Z,1.80
2018-09-27T19:18:10.515Z,2.07
2018-09-27T19:20:46.169Z,2.30
2018-09-27T19:23:21.582Z,2.00
2018-09-27T19:25:56.858Z,1.87
2018-09-27T19:28:32.306Z,1.90
2018-09-27T19:31:07.768Z,2.30
2018-09-27T19:33:43.096Z,1.80
2018-09-27T19:36:18.285Z,2.30
2018-09-27T19:38:53.469Z,3.50
2018-09-27T19:41:28.948Z,2.30
2018-09-27T19:44:04.478Z,2.67
2018-09-27T19:46:40.053Z,2.70
2018-09-27T19:49:15.731Z,4.20
2018-09-27T19:51:51.177Z,4.00
2018-09-27T19:54:26.596Z,4.10
2018-09-27T19:57:02.009Z,5.37
2018-09-27T19:59:37.539Z,6.43
2018-09-27T20:02:13.166Z,7.13
2018-09-27T20:04:48.800Z,9.60
2018-09-27T20:07:24.428Z,10.40
2018-09-27T20:09:59.868Z,12.00
2018-09-27T20:12:35.334Z,11.73
2018-09-27T20:15:10.988Z,12.63
2018-09-27T20:17:46.428Z,14.83
2018-09-27T20:20:21.988Z,15.70
2018-09-27T20:22:57.407Z,16.30
2018-09-27T20:25:32.689Z,17.77
2018-09-27T20:28:07.887Z,19.77
2018-09-27T20:30:43.124Z,18.17
2018-09-27T20:33:18.368Z,20.57
2018-09-27T20:35:53.729Z,18.85
2018-09-27T20:38:29.226Z,19.93
2018-09-27T20:41:04.804Z,20.57
2018-09-27T20:43:40.355Z,19.62
2018-09-27T20:46:16.015Z,19.32
2018-09-27T20:48:51.449Z,20.27
2018-09-27T20:51:26.927Z,21.05
2018-09-27T20:54:02.427Z,20.73
2018-09-27T20:56:37.905Z,21.87
2018-09-27T20:59:13.248Z,21.70
2018-09-27T21:01:48.660Z,18.90
2018-09-27T21:04:24.130Z,19.03
2018-09-27T21:06:59.545Z,20.37
2018-09-27T21:09:34.875Z,21.73
2018-09-27T21:12:10.146Z,17.67
2018-09-27T21:14:45.679Z,17.00
2018-09-27T21:17:21.206Z,18.37
2018-09-27T21:19:56.659Z,18.20
2018-09-27T21:22:32.038Z,16.83
2018-09-27T21:25:07.390Z,11.20
2018-09-27T21:27:42.688Z,6.67
2018-09-27T21:30:18.258Z,5.87
2018-09-27T21:32:56.817Z,5.50
2018-09-27T21:35:32.295Z,6.65
2018-09-27T21:38:07.700Z,7.40
2018-09-27T21:40:43.054Z,6.15
2018-09-27T21:43:18.362Z,5.50
2018-09-27T21:45:53.690Z,6.50
2018-09-27T21:48:29.105Z,5.72
2018-09-27T21:51:04.459Z,5.58
2018-09-27T21:53:39.597Z,5.92
2018-09-27T21:56:14.945Z,6.12
2018-09-27T21:58:50.309Z,5.50
2018-09-27T22:01:25.655Z,6.22
2018-09-27T22:04:01.261Z,7.08
2018-09-27T22:06:36.797Z,5.70
2018-09-27T22:09:12.567Z,5.28
2018-09-27T22:11:47.928Z,5.25
2018-09-27T22:14:23.368Z,6.12
2018-09-27T22:16:58.585Z,6.05
2018-09-27T22:19:33.908Z,6.22
2018-09-27T22:22:09.209Z,8.63
2018-09-27T22:24:44.474Z,7.22
2018-09-27T22:27:19.858Z,6.08
2018-09-27T22:29:55.414Z,7.25
2018-09-27T22:32:30.994Z,7.00
2018-09-27T22:35:06.664Z,5.65
2018-09-27T22:37:42.038Z,5.00
2018-09-27T22:40:17.355Z,4.87
2018-09-27T22:42:52.938Z,4.42
2018-09-27T22:45:28.457Z,4.70
2018-09-27T22:48:04.040Z,4.83
2018-09-27T22:50:39.436Z,5.80
2018-09-27T22:53:14.884Z,3.98
2018-09-27T22:55:50.344Z,5.03
2018-09-27T22:58:25.654Z,3.65
2018-09-27T23:01:01.124Z,3.87
2018-09-27T23:03:36.482Z,4.12
2018-09-27T23:06:11.954Z,3.52
2018-09-27T23:08:47.677Z,3.58
2018-09-27T23:11:23.088Z,3.08
2018-09-27T23:13:58.554Z,4.50
2018-09-27T23:16:33.765Z,2.90
2018-09-27T23:19:09.257Z,2.90
2018-09-27T23:21:44.658Z,1.37
2018-09-27T23:24:19.974Z,1.50
2018-09-27T23:26:55.268Z,1.60
2018-09-27T23:29:30.684Z,1.40
2018-09-27T23:32:05.994Z,1.02
2018-09-27T23:34:41.484Z,1.87
2018-09-27T23:37:17.047Z,1.10
2018-09-27T23:39:52.665Z,2.60
2018-09-27T23:42:28.237Z,1.50
2018-09-27T23:45:03.697Z,1.20
2018-09-27T23:47:39.204Z,2.00
2018-09-27T23:50:14.885Z,1.75
2018-09-27T23:52:50.383Z,2.20
2018-09-27T23:55:25.923Z,2.20
2018-09-27T23:58:01.273Z,1.65
